sensor_id;sensor_type;location;lat;lon;timestamp;temperature;humidity
5796;DHT22;2924;51.458;7.046;2023-12-20T00:00:06;7.10;99.90
5796;DHT22;2924;51.458;7.046;2023-12-20T00:02:31;7.00;99.90
5796;DHT22;2924;51.458;7.046;2023-12-20T00:04:57;7.00;99.90
5796;DHT22;2924;51.458;7.046;2023-12-20T00:07:23;7.00;99.90
5796;DHT22;2924;51.458;7.046;2023-12-20T00:09:48;6.90;99.90
5796;DHT22;2924;51.458;7.046;2023-12-20T00:12:14;6.90;99.90
5796;DHT22;2924;51.458;7.046;2023-12-20T00:14:40;6.90;99.90
5796;DHT22;2924;51.458;7.046;2023-12-20T00:17:05;6.80;99.90
5796;DHT22;2924;51.458;7.046;2023-12-20T00:19:31;6.80;99.90
5796;DHT22;2924;51.458;7.046;2023-12-20T00:21:57;6.80;99.90
5796;DHT22;2924;51.458;7.046;2023-12-20T00:24:24;6.70;99.90
5796;DHT22;2924;51.458;7.046;2023-12-20T00:26:50;6.60;99.90
5796;DHT22;2924;51.458;7.046;2023-12-20T00:29:16;6.50;99.90
5796;DHT22;2924;51.458;7.046;2023-12-20T00:31:42;6.50;99.90
5796;DHT22;2924;51.458;7.046;2023-12-20T00:34:07;6.40;99.90
5796;DHT22;2924;51.458;7.046;2023-12-20T00:36:33;6.40;99.90
5796;DHT22;2924;51.458;7.046;2023-12-20T00:38:59;6.30;99.90
5796;DHT22;2924;51.458;7.046;2023-12-20T00:41:24;6.20;99.90
5796;DHT22;2924;51.458;7.046;2023-12-20T00:43:50;6.20;99.90
5796;DHT22;2924;51.458;7.046;2023-12-20T00:46:16;6.20;99.90
5796;DHT22;2924;51.458;7.046;2023-12-20T00:48:41;6.10;99.90
5796;DHT22;2924;51.458;7.046;2023-12-20T00:51:07;6.10;99.90
5796;DHT22;2924;51.458;7.046;2023-12-20T00:53:33;6.20;99.90
5796;DHT22;2924;51.458;7.046;2023-12-20T00:55:59;6.20;99.90
5796;DHT22;2924;51.458;7.046;2023-12-20T00:58:25;6.20;99.90
5796;DHT22;2924;51.458;7.046;2023-12-20T01:00:51;6.20;99.90
5796;DHT22;2924;51.458;7.046;2023-12-20T01:03:16;6.20;99.90
5796;DHT22;2924;51.458;7.046;2023-12-20T01:05:42;6.20;99.90
5796;DHT22;2924;51.458;7.046;2023-12-20T01:08:08;6.20;99.90
5796;DHT22;2924;51.458;7.046;2023-12-20T01:10:33;6.10;99.90
5796;DHT22;2924;51.458;7.046;2023-12-20T01:12:59;6.10;99.90
5796;DHT22;2924;51.458;7.046;2023-12-20T01:15:25;6.10;99.90
5796;DHT22;2924;51.458;7.046;2023-12-20T01:17:51;6.10;99.90
5796;DHT22;2924;51.458;7.046;2023-12-20T01:20:17;6.20;99.90
5796;DHT22;2924;51.458;7.046;2023-12-20T01:22:42;6.10;99.90
5796;DHT22;2924;51.458;7.046;2023-12-20T01:25:08;6.10;99.90
5796;DHT22;2924;51.458;7.046;2023-12-20T01:27:34;6.20;99.90
5796;DHT22;2924;51.458;7.046;2023-12-20T01:30:00;6.10;99.90
5796;DHT22;2924;51.458;7.046;2023-12-20T01:32:25;6.10;99.90
5796;DHT22;2924;51.458;7.046;2023-12-20T01:34:51;6.10;99.90
5796;DHT22;2924;51.458;7.046;2023-12-20T01:37:17;6.00;99.90
5796;DHT22;2924;51.458;7.046;2023-12-20T01:39:43;6.00;99.90
5796;DHT22;2924;51.458;7.046;2023-12-20T01:42:08;6.00;99.90
5796;DHT22;2924;51.458;7.046;2023-12-20T01:44:34;6.00;99.90
5796;DHT22;2924;51.458;7.046;2023-12-20T01:47:00;5.90;99.90
5796;DHT22;2924;51.458;7.046;2023-12-20T01:49:25;5.90;99.90
5796;DHT22;2924;51.458;7.046;2023-12-20T01:51:51;5.90;99.90
5796;DHT22;2924;51.458;7.046;2023-12-20T01:54:19;5.90;99.90
5796;DHT22;2924;51.458;7.046;2023-12-20T01:56:45;5.90;99.90
5796;DHT22;2924;51.458;7.046;2023-12-20T01:59:11;5.80;99.90
5796;DHT22;2924;51.458;7.046;2023-12-20T02:01:37;5.80;99.90
5796;DHT22;2924;51.458;7.046;2023-12-20T02:04:04;5.70;99.90
5796;DHT22;2924;51.458;7.046;2023-12-20T02:06:30;5.60;99.90
5796;DHT22;2924;51.458;7.046;2023-12-20T02:08:58;5.50;99.90
5796;DHT22;2924;51.458;7.046;2023-12-20T02:11:25;5.40;99.90
5796;DHT22;2924;51.458;7.046;2023-12-20T02:13:51;5.20;99.90
5796;DHT22;2924;51.458;7.046;2023-12-20T02:16:16;5.20;99.90
5796;DHT22;2924;51.458;7.046;2023-12-20T02:18:45;5.20;99.90
5796;DHT22;2924;51.458;7.046;2023-12-20T02:21:11;5.30;99.90
5796;DHT22;2924;51.458;7.046;2023-12-20T02:23:36;5.40;99.90
5796;DHT22;2924;51.458;7.046;2023-12-20T02:26:03;5.40;99.90
5796;DHT22;2924;51.458;7.046;2023-12-20T02:28:30;5.40;99.90
5796;DHT22;2924;51.458;7.046;2023-12-20T02:30:56;5.40;99.90
5796;DHT22;2924;51.458;7.046;2023-12-20T02:33:21;5.40;99.90
5796;DHT22;2924;51.458;7.046;2023-12-20T02:35:47;5.40;99.90
5796;DHT22;2924;51.458;7.046;2023-12-20T02:38:13;5.40;99.90
5796;DHT22;2924;51.458;7.046;2023-12-20T02:40:38;5.50;99.90
5796;DHT22;2924;51.458;7.046;2023-12-20T02:43:04;5.50;99.90
5796;DHT22;2924;51.458;7.046;2023-12-20T02:45:30;5.50;99.90
5796;DHT22;2924;51.458;7.046;2023-12-20T02:47:55;5.60;99.90
5796;DHT22;2924;51.458;7.046;2023-12-20T02:50:21;5.60;99.90
5796;DHT22;2924;51.458;7.046;2023-12-20T02:52:47;5.60;99.90
5796;DHT22;2924;51.458;7.046;2023-12-20T02:55:12;5.60;99.90
5796;DHT22;2924;51.458;7.046;2023-12-20T02:57:38;5.70;99.90
5796;DHT22;2924;51.458;7.046;2023-12-20T03:00:08;5.60;99.90
5796;DHT22;2924;51.458;7.046;2023-12-20T03:02:34;5.60;99.90
5796;DHT22;2924;51.458;7.046;2023-12-20T03:05:00;5.50;99.90
5796;DHT22;2924;51.458;7.046;2023-12-20T03:07:26;5.60;99.90
5796;DHT22;2924;51.458;7.046;2023-12-20T03:09:52;5.50;99.90
5796;DHT22;2924;51.458;7.046;2023-12-20T03:12:17;5.50;99.90
5796;DHT22;2924;51.458;7.046;2023-12-20T03:14:43;5.40;99.90
5796;DHT22;2924;51.458;7.046;2023-12-20T03:17:10;5.40;99.90
5796;DHT22;2924;51.458;7.046;2023-12-20T03:19:35;5.40;99.90
5796;DHT22;2924;51.458;7.046;2023-12-20T03:22:01;5.30;99.90
5796;DHT22;2924;51.458;7.046;2023-12-20T03:24:27;5.40;99.90
5796;DHT22;2924;51.458;7.046;2023-12-20T03:26:53;5.30;99.90
5796;DHT22;2924;51.458;7.046;2023-12-20T03:29:18;5.30;99.90
5796;DHT22;2924;51.458;7.046;2023-12-20T03:31:44;5.30;99.90
5796;DHT22;2924;51.458;7.046;2023-12-20T03:34:09;5.30;99.90
5796;DHT22;2924;51.458;7.046;2023-12-20T03:36:36;5.20;99.90
5796;DHT22;2924;51.458;7.046;2023-12-20T03:39:01;5.20;99.90
5796;DHT22;2924;51.458;7.046;2023-12-20T03:41:27;5.00;99.90
5796;DHT22;2924;51.458;7.046;2023-12-20T03:43:53;4.90;99.90
5796;DHT22;2924;51.458;7.046;2023-12-20T03:46:18;4.90;99.90
5796;DHT22;2924;51.458;7.046;2023-12-20T03:48:44;4.80;99.90
5796;DHT22;2924;51.458;7.046;2023-12-20T03:51:09;4.80;99.90
5796;DHT22;2924;51.458;7.046;2023-12-20T03:53:35;4.80;99.90
5796;DHT22;2924;51.458;7.046;2023-12-20T03:56:01;4.90;99.90
5796;DHT22;2924;51.458;7.046;2023-12-20T03:58:26;4.90;99.90
5796;DHT22;2924;51.458;7.046;2023-12-20T04:00:52;4.80;99.90
5796;DHT22;2924;51.458;7.046;2023-12-20T04:03:17;4.70;99.90
5796;DHT22;2924;51.458;7.046;2023-12-20T04:05:43;4.70;99.90
5796;DHT22;2924;51.458;7.046;2023-12-20T04:08:09;4.60;99.90
5796;DHT22;2924;51.458;7.046;2023-12-20T04:10:35;4.60;99.90
5796;DHT22;2924;51.458;7.046;2023-12-20T04:13:00;4.50;99.90
5796;DHT22;2924;51.458;7.046;2023-12-20T04:15:26;4.50;99.90
5796;DHT22;2924;51.458;7.046;2023-12-20T04:17:52;4.50;99.90
5796;DHT22;2924;51.458;7.046;2023-12-20T04:20:17;4.50;99.90
5796;DHT22;2924;51.458;7.046;2023-12-20T04:22:43;4.50;99.90
5796;DHT22;2924;51.458;7.046;2023-12-20T04:25:09;4.40;99.90
5796;DHT22;2924;51.458;7.046;2023-12-20T04:27:35;4.40;99.90
5796;DHT22;2924;51.458;7.046;2023-12-20T04:30:00;4.50;99.90
5796;DHT22;2924;51.458;7.046;2023-12-20T04:32:26;4.50;99.90
5796;DHT22;2924;51.458;7.046;2023-12-20T04:34:52;4.60;99.90
5796;DHT22;2924;51.458;7.046;2023-12-20T04:37:17;4.70;99.90
5796;DHT22;2924;51.458;7.046;2023-12-20T04:39:43;4.70;99.90
5796;DHT22;2924;51.458;7.046;2023-12-20T04:42:08;4.70;99.90
5796;DHT22;2924;51.458;7.046;2023-12-20T04:44:34;4.70;99.90
5796;DHT22;2924;51.458;7.046;2023-12-20T04:47:00;4.80;99.90
5796;DHT22;2924;51.458;7.046;2023-12-20T04:49:25;4.80;99.90
5796;DHT22;2924;51.458;7.046;2023-12-20T04:51:51;4.90;99.90
5796;DHT22;2924;51.458;7.046;2023-12-20T04:54:16;4.90;99.90
5796;DHT22;2924;51.458;7.046;2023-12-20T04:56:42;4.90;99.90
5796;DHT22;2924;51.458;7.046;2023-12-20T04:59:08;4.90;99.90
5796;DHT22;2924;51.458;7.046;2023-12-20T05:01:33;4.90;99.90
5796;DHT22;2924;51.458;7.046;2023-12-20T05:03:59;4.90;99.90
5796;DHT22;2924;51.458;7.046;2023-12-20T05:06:25;4.90;99.90
5796;DHT22;2924;51.458;7.046;2023-12-20T05:08:50;5.00;99.90
5796;DHT22;2924;51.458;7.046;2023-12-20T05:11:16;5.00;99.90
5796;DHT22;2924;51.458;7.046;2023-12-20T05:13:42;4.90;99.90
5796;DHT22;2924;51.458;7.046;2023-12-20T05:16:08;4.80;99.90
5796;DHT22;2924;51.458;7.046;2023-12-20T05:18:34;4.70;99.90
5796;DHT22;2924;51.458;7.046;2023-12-20T05:21:00;4.70;99.90
5796;DHT22;2924;51.458;7.046;2023-12-20T05:23:26;4.70;99.90
5796;DHT22;2924;51.458;7.046;2023-12-20T05:25:52;4.70;99.90
5796;DHT22;2924;51.458;7.046;2023-12-20T05:28:17;4.80;99.90
5796;DHT22;2924;51.458;7.046;2023-12-20T05:30:43;4.80;99.90
5796;DHT22;2924;51.458;7.046;2023-12-20T05:33:08;4.90;99.90
5796;DHT22;2924;51.458;7.046;2023-12-20T05:35:34;4.90;99.90
5796;DHT22;2924;51.458;7.046;2023-12-20T05:38:00;4.90;99.90
5796;DHT22;2924;51.458;7.046;2023-12-20T05:40:26;4.90;99.90
5796;DHT22;2924;51.458;7.046;2023-12-20T05:42:51;4.90;99.90
5796;DHT22;2924;51.458;7.046;2023-12-20T05:45:17;4.90;99.90
5796;DHT22;2924;51.458;7.046;2023-12-20T05:47:42;4.90;99.90
5796;DHT22;2924;51.458;7.046;2023-12-20T05:50:08;4.90;99.90
5796;DHT22;2924;51.458;7.046;2023-12-20T05:52:34;5.00;99.90
5796;DHT22;2924;51.458;7.046;2023-12-20T05:55:00;5.00;99.90
5796;DHT22;2924;51.458;7.046;2023-12-20T05:57:27;4.90;99.90
5796;DHT22;2924;51.458;7.046;2023-12-20T05:59:52;4.90;99.90
5796;DHT22;2924;51.458;7.046;2023-12-20T06:02:18;4.90;99.90
5796;DHT22;2924;51.458;7.046;2023-12-20T06:04:43;5.00;99.90
5796;DHT22;2924;51.458;7.046;2023-12-20T06:07:12;5.00;99.90
5796;DHT22;2924;51.458;7.046;2023-12-20T06:09:38;5.00;99.90
5796;DHT22;2924;51.458;7.046;2023-12-20T06:12:04;5.10;99.90
5796;DHT22;2924;51.458;7.046;2023-12-20T06:14:30;5.00;99.90
5796;DHT22;2924;51.458;7.046;2023-12-20T06:16:57;5.10;99.90
5796;DHT22;2924;51.458;7.046;2023-12-20T06:19:22;5.10;99.90
5796;DHT22;2924;51.458;7.046;2023-12-20T06:21:48;5.10;99.90
5796;DHT22;2924;51.458;7.046;2023-12-20T06:24:14;5.10;99.90
5796;DHT22;2924;51.458;7.046;2023-12-20T06:26:39;5.20;99.90
5796;DHT22;2924;51.458;7.046;2023-12-20T06:29:05;5.10;99.90
5796;DHT22;2924;51.458;7.046;2023-12-20T06:31:30;5.10;99.90
5796;DHT22;2924;51.458;7.046;2023-12-20T06:33:58;5.20;99.90
5796;DHT22;2924;51.458;7.046;2023-12-20T06:36:25;5.20;99.90
5796;DHT22;2924;51.458;7.046;2023-12-20T06:38:51;5.20;99.90
5796;DHT22;2924;51.458;7.046;2023-12-20T06:41:17;5.20;99.90
5796;DHT22;2924;51.458;7.046;2023-12-20T06:43:43;5.20;99.90
5796;DHT22;2924;51.458;7.046;2023-12-20T06:46:09;5.20;99.90
5796;DHT22;2924;51.458;7.046;2023-12-20T06:48:35;5.20;99.90
5796;DHT22;2924;51.458;7.046;2023-12-20T06:51:01;5.20;99.90
5796;DHT22;2924;51.458;7.046;2023-12-20T06:53:29;5.20;99.90
5796;DHT22;2924;51.458;7.046;2023-12-20T06:55:55;5.20;99.90
5796;DHT22;2924;51.458;7.046;2023-12-20T06:58:22;5.20;99.90
5796;DHT22;2924;51.458;7.046;2023-12-20T07:00:48;5.30;99.90
5796;DHT22;2924;51.458;7.046;2023-12-20T07:03:13;5.30;99.90
5796;DHT22;2924;51.458;7.046;2023-12-20T07:05:39;5.30;99.90
5796;DHT22;2924;51.458;7.046;2023-12-20T07:08:06;5.30;99.90
5796;DHT22;2924;51.458;7.046;2023-12-20T07:10:32;5.30;99.90
5796;DHT22;2924;51.458;7.046;2023-12-20T07:12:57;5.30;99.90
5796;DHT22;2924;51.458;7.046;2023-12-20T07:15:23;5.30;99.90
5796;DHT22;2924;51.458;7.046;2023-12-20T07:17:49;5.40;99.90
5796;DHT22;2924;51.458;7.046;2023-12-20T07:20:15;5.30;99.90
5796;DHT22;2924;51.458;7.046;2023-12-20T07:22:40;5.40;99.90
5796;DHT22;2924;51.458;7.046;2023-12-20T07:25:07;5.40;99.90
5796;DHT22;2924;51.458;7.046;2023-12-20T07:27:32;5.40;99.90
5796;DHT22;2924;51.458;7.046;2023-12-20T07:29:58;5.40;99.90
5796;DHT22;2924;51.458;7.046;2023-12-20T07:32:24;5.50;99.90
5796;DHT22;2924;51.458;7.046;2023-12-20T07:34:49;5.50;99.90
5796;DHT22;2924;51.458;7.046;2023-12-20T07:37:15;5.50;99.90
5796;DHT22;2924;51.458;7.046;2023-12-20T07:39:41;5.50;99.90
5796;DHT22;2924;51.458;7.046;2023-12-20T07:42:07;5.60;99.90
5796;DHT22;2924;51.458;7.046;2023-12-20T07:44:33;5.60;99.90
5796;DHT22;2924;51.458;7.046;2023-12-20T07:46:59;5.60;99.90
5796;DHT22;2924;51.458;7.046;2023-12-20T07:49:26;5.60;99.90
5796;DHT22;2924;51.458;7.046;2023-12-20T07:51:51;5.60;99.90
5796;DHT22;2924;51.458;7.046;2023-12-20T07:54:17;5.60;99.90
5796;DHT22;2924;51.458;7.046;2023-12-20T07:56:43;5.70;99.90
5796;DHT22;2924;51.458;7.046;2023-12-20T07:59:09;5.70;99.90
5796;DHT22;2924;51.458;7.046;2023-12-20T08:01:34;5.70;99.90
5796;DHT22;2924;51.458;7.046;2023-12-20T08:04:00;5.70;99.90
5796;DHT22;2924;51.458;7.046;2023-12-20T08:06:25;5.80;99.90
5796;DHT22;2924;51.458;7.046;2023-12-20T08:08:51;5.80;99.90
5796;DHT22;2924;51.458;7.046;2023-12-20T08:11:16;5.80;99.90
5796;DHT22;2924;51.458;7.046;2023-12-20T08:13:42;5.80;99.90
5796;DHT22;2924;51.458;7.046;2023-12-20T08:16:08;5.80;99.90
5796;DHT22;2924;51.458;7.046;2023-12-20T08:18:34;5.80;99.90
5796;DHT22;2924;51.458;7.046;2023-12-20T08:21:00;5.90;99.90
5796;DHT22;2924;51.458;7.046;2023-12-20T08:23:26;5.90;99.90
5796;DHT22;2924;51.458;7.046;2023-12-20T08:25:52;5.90;99.90
5796;DHT22;2924;51.458;7.046;2023-12-20T08:28:17;6.00;99.90
5796;DHT22;2924;51.458;7.046;2023-12-20T08:30:43;5.90;99.90
5796;DHT22;2924;51.458;7.046;2023-12-20T08:33:08;5.90;99.90
5796;DHT22;2924;51.458;7.046;2023-12-20T08:35:39;6.00;99.90
5796;DHT22;2924;51.458;7.046;2023-12-20T08:38:05;6.00;99.90
5796;DHT22;2924;51.458;7.046;2023-12-20T08:40:31;6.00;99.90
5796;DHT22;2924;51.458;7.046;2023-12-20T08:42:56;6.10;99.90
5796;DHT22;2924;51.458;7.046;2023-12-20T08:45:22;6.10;99.90
5796;DHT22;2924;51.458;7.046;2023-12-20T08:47:47;6.10;99.90
5796;DHT22;2924;51.458;7.046;2023-12-20T08:50:13;6.10;99.90
5796;DHT22;2924;51.458;7.046;2023-12-20T08:52:39;6.10;99.90
5796;DHT22;2924;51.458;7.046;2023-12-20T08:55:05;6.10;99.90
5796;DHT22;2924;51.458;7.046;2023-12-20T08:57:30;6.10;99.90
5796;DHT22;2924;51.458;7.046;2023-12-20T08:59:57;6.10;99.90
5796;DHT22;2924;51.458;7.046;2023-12-20T09:02:22;6.10;99.90
5796;DHT22;2924;51.458;7.046;2023-12-20T09:04:48;6.10;99.90
5796;DHT22;2924;51.458;7.046;2023-12-20T09:07:24;6.10;99.90
5796;DHT22;2924;51.458;7.046;2023-12-20T09:09:50;6.10;99.90
5796;DHT22;2924;51.458;7.046;2023-12-20T09:12:20;6.10;99.90
5796;DHT22;2924;51.458;7.046;2023-12-20T09:14:47;6.10;99.90
5796;DHT22;2924;51.458;7.046;2023-12-20T09:17:12;6.10;99.90
5796;DHT22;2924;51.458;7.046;2023-12-20T09:19:38;6.10;99.90
5796;DHT22;2924;51.458;7.046;2023-12-20T09:22:06;6.10;99.90
5796;DHT22;2924;51.458;7.046;2023-12-20T09:24:32;6.10;99.90
5796;DHT22;2924;51.458;7.046;2023-12-20T09:26:57;6.20;99.90
5796;DHT22;2924;51.458;7.046;2023-12-20T09:29:23;6.20;99.90
5796;DHT22;2924;51.458;7.046;2023-12-20T09:31:50;6.20;99.90
5796;DHT22;2924;51.458;7.046;2023-12-20T09:34:16;6.20;99.90
5796;DHT22;2924;51.458;7.046;2023-12-20T09:36:42;6.20;99.90
5796;DHT22;2924;51.458;7.046;2023-12-20T09:39:15;6.20;99.90
5796;DHT22;2924;51.458;7.046;2023-12-20T09:41:45;6.20;99.90
5796;DHT22;2924;51.458;7.046;2023-12-20T09:44:18;6.20;99.90
5796;DHT22;2924;51.458;7.046;2023-12-20T09:46:45;6.20;99.90
5796;DHT22;2924;51.458;7.046;2023-12-20T09:49:11;6.30;99.90
5796;DHT22;2924;51.458;7.046;2023-12-20T09:51:38;6.30;99.90
5796;DHT22;2924;51.458;7.046;2023-12-20T09:54:04;6.30;99.90
5796;DHT22;2924;51.458;7.046;2023-12-20T09:56:30;6.30;99.90
5796;DHT22;2924;51.458;7.046;2023-12-20T09:58:56;6.40;99.90
5796;DHT22;2924;51.458;7.046;2023-12-20T10:01:23;6.40;99.90
5796;DHT22;2924;51.458;7.046;2023-12-20T10:03:51;6.40;99.90
5796;DHT22;2924;51.458;7.046;2023-12-20T10:06:19;6.40;99.90
5796;DHT22;2924;51.458;7.046;2023-12-20T10:08:45;6.40;99.90
5796;DHT22;2924;51.458;7.046;2023-12-20T10:11:11;6.50;99.90
5796;DHT22;2924;51.458;7.046;2023-12-20T10:13:40;6.50;99.90
5796;DHT22;2924;51.458;7.046;2023-12-20T10:16:06;6.60;99.90
5796;DHT22;2924;51.458;7.046;2023-12-20T10:18:33;6.60;99.90
5796;DHT22;2924;51.458;7.046;2023-12-20T10:20:58;6.70;99.90
5796;DHT22;2924;51.458;7.046;2023-12-20T10:23:24;6.60;99.90
5796;DHT22;2924;51.458;7.046;2023-12-20T10:25:56;6.60;99.90
5796;DHT22;2924;51.458;7.046;2023-12-20T10:28:22;6.60;99.90
5796;DHT22;2924;51.458;7.046;2023-12-20T10:30:53;6.60;99.90
5796;DHT22;2924;51.458;7.046;2023-12-20T10:33:26;6.60;99.90
5796;DHT22;2924;51.458;7.046;2023-12-20T10:35:52;6.70;99.90
5796;DHT22;2924;51.458;7.046;2023-12-20T10:38:18;6.80;99.90
5796;DHT22;2924;51.458;7.046;2023-12-20T10:40:45;6.80;99.90
5796;DHT22;2924;51.458;7.046;2023-12-20T10:43:11;6.80;99.90
5796;DHT22;2924;51.458;7.046;2023-12-20T10:45:37;6.80;99.90
5796;DHT22;2924;51.458;7.046;2023-12-20T10:48:03;6.80;99.90
5796;DHT22;2924;51.458;7.046;2023-12-20T10:50:31;6.80;99.90
5796;DHT22;2924;51.458;7.046;2023-12-20T10:52:58;6.90;99.90
5796;DHT22;2924;51.458;7.046;2023-12-20T10:55:24;6.90;99.90
5796;DHT22;2924;51.458;7.046;2023-12-20T10:58:01;6.90;99.90
5796;DHT22;2924;51.458;7.046;2023-12-20T11:00:31;6.80;99.90
5796;DHT22;2924;51.458;7.046;2023-12-20T11:03:00;6.70;99.90
5796;DHT22;2924;51.458;7.046;2023-12-20T11:05:36;6.70;99.90
5796;DHT22;2924;51.458;7.046;2023-12-20T11:08:08;6.60;99.90
5796;DHT22;2924;51.458;7.046;2023-12-20T11:13:36;6.60;99.90
5796;DHT22;2924;51.458;7.046;2023-12-20T11:16:03;6.70;99.90
5796;DHT22;2924;51.458;7.046;2023-12-20T11:18:32;6.70;99.90
5796;DHT22;2924;51.458;7.046;2023-12-20T11:21:06;6.80;99.90
5796;DHT22;2924;51.458;7.046;2023-12-20T11:23:32;6.80;99.90
5796;DHT22;2924;51.458;7.046;2023-12-20T11:26:01;6.80;99.90
5796;DHT22;2924;51.458;7.046;2023-12-20T11:28:28;6.70;99.90
5796;DHT22;2924;51.458;7.046;2023-12-20T11:30:56;6.70;99.90
5796;DHT22;2924;51.458;7.046;2023-12-20T11:33:24;6.70;99.90
5796;DHT22;2924;51.458;7.046;2023-12-20T11:35:50;6.70;99.90
5796;DHT22;2924;51.458;7.046;2023-12-20T11:38:16;6.70;99.90
5796;DHT22;2924;51.458;7.046;2023-12-20T11:40:42;6.60;99.90
5796;DHT22;2924;51.458;7.046;2023-12-20T11:43:09;6.70;99.90
5796;DHT22;2924;51.458;7.046;2023-12-20T11:45:34;6.60;99.90
5796;DHT22;2924;51.458;7.046;2023-12-20T11:48:01;6.60;99.90
5796;DHT22;2924;51.458;7.046;2023-12-20T11:50:28;6.70;99.90
5796;DHT22;2924;51.458;7.046;2023-12-20T11:52:55;6.70;99.90
5796;DHT22;2924;51.458;7.046;2023-12-20T11:55:22;6.80;99.90
5796;DHT22;2924;51.458;7.046;2023-12-20T11:57:47;6.80;99.90
5796;DHT22;2924;51.458;7.046;2023-12-20T12:00:14;6.70;99.90
5796;DHT22;2924;51.458;7.046;2023-12-20T12:02:39;6.60;99.90
5796;DHT22;2924;51.458;7.046;2023-12-20T12:05:06;6.50;99.90
5796;DHT22;2924;51.458;7.046;2023-12-20T12:07:32;6.40;99.90
5796;DHT22;2924;51.458;7.046;2023-12-20T12:09:58;6.30;99.90
5796;DHT22;2924;51.458;7.046;2023-12-20T12:12:24;6.30;99.90
5796;DHT22;2924;51.458;7.046;2023-12-20T12:14:50;6.20;99.90
5796;DHT22;2924;51.458;7.046;2023-12-20T12:17:16;6.20;99.90
5796;DHT22;2924;51.458;7.046;2023-12-20T12:19:43;6.20;99.90
5796;DHT22;2924;51.458;7.046;2023-12-20T12:22:11;6.20;99.90
5796;DHT22;2924;51.458;7.046;2023-12-20T12:24:43;6.20;99.90
5796;DHT22;2924;51.458;7.046;2023-12-20T12:27:09;6.30;99.90
5796;DHT22;2924;51.458;7.046;2023-12-20T12:29:36;6.30;99.90
5796;DHT22;2924;51.458;7.046;2023-12-20T12:32:08;6.30;99.90
5796;DHT22;2924;51.458;7.046;2023-12-20T12:34:34;6.30;99.90
5796;DHT22;2924;51.458;7.046;2023-12-20T12:37:00;6.30;99.90
5796;DHT22;2924;51.458;7.046;2023-12-20T12:39:25;6.30;99.90
5796;DHT22;2924;51.458;7.046;2023-12-20T12:41:52;6.40;99.90
5796;DHT22;2924;51.458;7.046;2023-12-20T12:44:17;6.40;99.90
5796;DHT22;2924;51.458;7.046;2023-12-20T12:46:45;6.40;99.90
5796;DHT22;2924;51.458;7.046;2023-12-20T12:49:11;6.40;99.90
5796;DHT22;2924;51.458;7.046;2023-12-20T12:51:36;6.50;99.90
5796;DHT22;2924;51.458;7.046;2023-12-20T12:54:02;6.50;99.90
5796;DHT22;2924;51.458;7.046;2023-12-20T12:56:27;6.60;99.90
5796;DHT22;2924;51.458;7.046;2023-12-20T12:58:53;6.60;99.90
5796;DHT22;2924;51.458;7.046;2023-12-20T13:01:18;6.70;99.90
5796;DHT22;2924;51.458;7.046;2023-12-20T13:03:44;6.70;99.90
5796;DHT22;2924;51.458;7.046;2023-12-20T13:06:10;6.70;99.90
5796;DHT22;2924;51.458;7.046;2023-12-20T13:08:35;6.80;99.90
5796;DHT22;2924;51.458;7.046;2023-12-20T13:11:01;6.90;99.90
5796;DHT22;2924;51.458;7.046;2023-12-20T13:13:30;6.90;99.90
5796;DHT22;2924;51.458;7.046;2023-12-20T13:15:55;6.80;99.90
5796;DHT22;2924;51.458;7.046;2023-12-20T13:18:22;6.80;99.90
5796;DHT22;2924;51.458;7.046;2023-12-20T13:20:48;6.70;99.90
5796;DHT22;2924;51.458;7.046;2023-12-20T13:23:14;6.70;99.90
5796;DHT22;2924;51.458;7.046;2023-12-20T13:25:40;6.70;99.90
5796;DHT22;2924;51.458;7.046;2023-12-20T13:28:06;6.70;99.90
5796;DHT22;2924;51.458;7.046;2023-12-20T13:30:31;6.70;99.90
5796;DHT22;2924;51.458;7.046;2023-12-20T13:32:57;6.60;99.90
5796;DHT22;2924;51.458;7.046;2023-12-20T13:35:22;6.60;99.90
5796;DHT22;2924;51.458;7.046;2023-12-20T13:37:48;6.50;99.90
5796;DHT22;2924;51.458;7.046;2023-12-20T13:40:14;6.40;99.90
5796;DHT22;2924;51.458;7.046;2023-12-20T13:42:39;6.30;99.90
5796;DHT22;2924;51.458;7.046;2023-12-20T13:45:06;6.30;99.90
5796;DHT22;2924;51.458;7.046;2023-12-20T13:47:32;6.20;99.90
5796;DHT22;2924;51.458;7.046;2023-12-20T13:49:58;6.20;99.90
5796;DHT22;2924;51.458;7.046;2023-12-20T13:52:24;6.10;99.90
5796;DHT22;2924;51.458;7.046;2023-12-20T13:54:49;6.10;99.90
5796;DHT22;2924;51.458;7.046;2023-12-20T13:57:15;6.10;99.90
5796;DHT22;2924;51.458;7.046;2023-12-20T13:59:40;6.10;99.90
5796;DHT22;2924;51.458;7.046;2023-12-20T14:02:06;6.00;99.90
5796;DHT22;2924;51.458;7.046;2023-12-20T14:04:32;6.10;99.90
5796;DHT22;2924;51.458;7.046;2023-12-20T14:06:57;6.10;99.90
5796;DHT22;2924;51.458;7.046;2023-12-20T14:09:23;6.10;99.90
5796;DHT22;2924;51.458;7.046;2023-12-20T14:11:49;6.10;99.90
5796;DHT22;2924;51.458;7.046;2023-12-20T14:14:14;6.10;99.90
5796;DHT22;2924;51.458;7.046;2023-12-20T14:16:40;6.10;99.90
5796;DHT22;2924;51.458;7.046;2023-12-20T14:19:06;6.10;99.90
5796;DHT22;2924;51.458;7.046;2023-12-20T14:21:34;6.10;99.90
5796;DHT22;2924;51.458;7.046;2023-12-20T14:24:00;6.10;99.90
5796;DHT22;2924;51.458;7.046;2023-12-20T14:26:26;6.10;99.90
5796;DHT22;2924;51.458;7.046;2023-12-20T14:28:53;6.10;99.90
5796;DHT22;2924;51.458;7.046;2023-12-20T14:31:18;6.10;99.90
5796;DHT22;2924;51.458;7.046;2023-12-20T14:33:44;6.10;99.90
5796;DHT22;2924;51.458;7.046;2023-12-20T14:36:11;6.10;99.90
5796;DHT22;2924;51.458;7.046;2023-12-20T14:38:37;6.10;99.90
5796;DHT22;2924;51.458;7.046;2023-12-20T14:41:03;6.00;99.90
5796;DHT22;2924;51.458;7.046;2023-12-20T14:43:34;6.00;99.90
5796;DHT22;2924;51.458;7.046;2023-12-20T14:45:59;6.10;99.90
5796;DHT22;2924;51.458;7.046;2023-12-20T14:48:25;6.00;99.90
5796;DHT22;2924;51.458;7.046;2023-12-20T14:50:52;6.10;99.90
5796;DHT22;2924;51.458;7.046;2023-12-20T14:53:18;6.10;99.90
5796;DHT22;2924;51.458;7.046;2023-12-20T14:55:44;6.10;99.90
5796;DHT22;2924;51.458;7.046;2023-12-20T14:58:10;6.10;99.90
5796;DHT22;2924;51.458;7.046;2023-12-20T15:00:35;6.10;99.90
5796;DHT22;2924;51.458;7.046;2023-12-20T15:03:01;6.10;99.90
5796;DHT22;2924;51.458;7.046;2023-12-20T15:05:27;6.10;99.90
5796;DHT22;2924;51.458;7.046;2023-12-20T15:07:52;6.10;99.90
5796;DHT22;2924;51.458;7.046;2023-12-20T15:10:18;6.10;99.90
5796;DHT22;2924;51.458;7.046;2023-12-20T15:12:44;6.20;99.90
5796;DHT22;2924;51.458;7.046;2023-12-20T15:15:13;6.10;99.90
5796;DHT22;2924;51.458;7.046;2023-12-20T15:17:39;6.20;99.90
5796;DHT22;2924;51.458;7.046;2023-12-20T15:20:05;6.20;99.90
5796;DHT22;2924;51.458;7.046;2023-12-20T15:22:30;6.20;99.90
5796;DHT22;2924;51.458;7.046;2023-12-20T15:24:59;6.20;99.90
5796;DHT22;2924;51.458;7.046;2023-12-20T15:27:24;6.20;99.90
5796;DHT22;2924;51.458;7.046;2023-12-20T15:29:50;6.30;99.90
5796;DHT22;2924;51.458;7.046;2023-12-20T15:32:17;6.30;99.90
5796;DHT22;2924;51.458;7.046;2023-12-20T15:34:44;6.20;99.90
5796;DHT22;2924;51.458;7.046;2023-12-20T15:37:10;6.30;99.90
5796;DHT22;2924;51.458;7.046;2023-12-20T15:39:36;6.30;99.90
5796;DHT22;2924;51.458;7.046;2023-12-20T15:42:01;6.30;99.90
5796;DHT22;2924;51.458;7.046;2023-12-20T15:44:27;6.30;99.90
5796;DHT22;2924;51.458;7.046;2023-12-20T15:46:52;6.30;99.90
5796;DHT22;2924;51.458;7.046;2023-12-20T15:49:18;6.30;99.90
5796;DHT22;2924;51.458;7.046;2023-12-20T15:51:44;6.30;99.90
5796;DHT22;2924;51.458;7.046;2023-12-20T15:54:10;6.30;99.90
5796;DHT22;2924;51.458;7.046;2023-12-20T15:56:36;6.30;99.90
5796;DHT22;2924;51.458;7.046;2023-12-20T15:59:02;6.30;99.90
5796;DHT22;2924;51.458;7.046;2023-12-20T16:01:31;6.30;99.90
5796;DHT22;2924;51.458;7.046;2023-12-20T16:03:57;6.30;99.90
5796;DHT22;2924;51.458;7.046;2023-12-20T16:06:22;6.40;99.90
5796;DHT22;2924;51.458;7.046;2023-12-20T16:08:48;6.40;99.90
5796;DHT22;2924;51.458;7.046;2023-12-20T16:11:14;6.40;99.90